PST,Max TemperatureF,Mean TemperatureF,Min TemperatureF,Max Dew PointF,MeanDew PointF,Min DewpointF,Max Humidity, Mean Humidity, Min Humidity, Max Sea Level PressureIn, Mean Sea Level PressureIn, Min Sea Level PressureIn, Max VisibilityMiles, Mean VisibilityMiles, Min VisibilityMiles, Max Wind SpeedMPH, Mean Wind SpeedMPH, Max Gust SpeedMPH,PrecipitationIn, CloudCover, Events, WindDirDegrees
2012-2-1,48,43,38,43,40,38,100,90,71,30.43,30.13,29.84,10,9,2,10,3,14,0.22,7,Rain,289
2012-2-2,53,45,37,40,38,34,97,82,55,30.45,30.33,30.18,10,10,10,12,5,23,T,2,Rain,72
2012-2-3,58,46,34,43,38,32,100,81,57,30.17,30.08,30.03,10,10,10,13,5,17,0.00,0,,73
2012-2-4,56,45,33,38,35,32,100,77,45,30.14,30.11,30.07,10,10,10,12,5,16,0.00,0,,69
2012-2-5,56,46,35,40,35,29,89,74,53,30.22,30.16,30.08,10,10,10,10,3,16,0.00,3,,63
2012-2-6,57,45,33,35,33,30,100,67,44,30.06,29.93,29.80,10,10,10,14,7,18,0.00,0,,57
2012-2-7,61,50,38,41,33,29,100,57,32,29.93,29.83,29.78,10,10,10,13,6,18,T,3,Rain,90
2012-2-8,52,50,48,49,47,32,100,96,66,30.21,30.09,29.95,10,5,1,18,9,29,0.22,8,Rain,152
2012-2-9,54,50,46,51,48,45,100,93,82,30.20,30.10,29.99,10,8,3,15,7,23,0.85,8,Rain,106
2012-2-10,52,49,45,52,47,45,100,96,80,29.98,29.90,29.83,10,4,1,17,6,26,0.76,8,Rain,139
2012-2-11,50,47,44,47,45,43,100,97,83,30.10,30.06,29.97,10,3,1,15,8,26,0.74,8,Rain,141
2012-2-12,45,43,40,45,42,39,100,98,93,30.11,29.98,29.92,10,6,2,10,3,15,0.40,8,Rain,161
2012-2-13,49,42,35,43,40,36,100,94,80,30.06,30.01,29.96,10,7,0,9,2,12,0.04,7,Fog-Rain,195
2012-2-14,47,39,31,40,37,32,100,92,68,30.21,29.95,29.89,10,8,1,17,4,21,0.37,6,Rain,114
2012-2-15,47,38,29,40,34,29,100,91,76,30.36,30.29,30.19,10,8,1,8,3,13,0.00,5,,98
2012-2-16,47,44,40,45,43,32,100,96,81,30.24,30.20,30.14,10,5,0,13,5,20,0.26,8,Fog-Rain,144
2012-2-17,49,45,41,46,43,37,100,94,81,30.20,29.96,29.81,10,7,2,28,10,41,0.65,8,Rain,166
2012-2-18,45,43,41,43,41,32,100,89,67,30.09,29.89,29.80,10,7,2,29,15,41,0.31,8,Rain,261
2012-2-19,47,42,36,39,36,30,100,83,68,30.11,30.01,29.86,10,10,2,14,5,20,0.03,7,Rain,146
2012-2-20,46,42,38,46,43,35,100,98,86,30.01,29.93,29.82,10,3,1,8,4,14,0.36,8,Rain,124
2012-2-21,48,47,46,48,47,46,100,100,100,30.10,30.06,30.01,6,2,1,18,9,23,2.46,8,Rain,225
2012-2-22,49,45,41,47,41,36,100,88,71,30.36,30.18,30.03,10,7,2,23,9,38,0.36,8,Rain,282
2012-2-23,48,43,38,39,37,35,97,83,68,30.41,30.35,30.22,10,9,5,15,4,18,0.15,7,Rain,262
2012-2-24,45,42,38,45,41,37,100,96,93,30.21,29.81,29.57,10,4,1,22,9,32,2.47,8,Rain,173
2012-2-25,47,43,39,36,31,26,87,67,47,30.21,30.00,29.65,10,10,10,26,15,41,0.03,6,Rain,290
2012-2-26,46,38,30,33,25,18,88,61,37,30.22,30.18,30.13,10,10,10,16,7,22,0.00,3,,334
2012-2-27,45,37,28,30,23,16,85,61,38,30.22,30.12,29.94,10,10,10,14,6,20,0.00,1,,84
2012-2-28,42,38,33,36,33,28,100,83,20,29.92,29.57,29.35,10,9,3,22,10,37,0.36,8,Rain,134
2012-2-29,44,39,33,37,35,33,100,95,76,29.78,29.53,29.39,10,6,1,17,6,24,0.36,8,Rain-Snow,96